createdAt,value
2024-02-11T00:01:12.869Z,2.80
2024-02-11T00:03:40.177Z,2.58
2024-02-11T00:06:10.993Z,2.80
2024-02-11T00:08:40.574Z,2.53
2024-02-11T00:11:07.524Z,2.63
2024-02-11T00:13:34.266Z,2.47
2024-02-11T00:16:02.088Z,2.55
2024-02-11T00:18:29.697Z,2.42
2024-02-11T00:23:25.752Z,2.50
2024-02-11T00:25:55.176Z,2.28
2024-02-11T00:28:26.924Z,2.45
2024-02-11T00:30:54.393Z,2.35
2024-02-11T00:35:48.279Z,2.47
2024-02-11T00:40:42.167Z,2.10
2024-02-11T00:43:08.613Z,2.10
2024-02-11T00:45:36.932Z,2.03
2024-02-11T00:48:05.120Z,2.35
2024-02-11T00:50:32.478Z,2.30
2024-02-11T00:52:59.550Z,2.30
2024-02-11T00:55:26.044Z,1.92
2024-02-11T00:57:52.503Z,2.13
2024-02-11T01:00:19.479Z,2.00
2024-02-11T01:02:46.187Z,2.10
2024-02-11T01:05:12.756Z,2.30
2024-02-11T01:07:40.415Z,2.53
2024-02-11T01:10:13.588Z,2.20
2024-02-11T01:12:45.038Z,2.00
2024-02-11T01:15:17.410Z,2.00
2024-02-11T01:17:44.484Z,2.10
2024-02-11T01:20:17.393Z,2.50
2024-02-11T01:22:44.814Z,2.20
2024-02-11T01:25:11.756Z,2.00
2024-02-11T01:27:41.311Z,1.80
2024-02-11T01:30:08.367Z,2.00
2024-02-11T01:32:35.038Z,2.20
2024-02-11T01:35:01.581Z,1.90
2024-02-11T01:37:28.155Z,1.95
2024-02-11T01:39:54.862Z,2.20
2024-02-11T01:42:21.358Z,1.88
2024-02-11T01:44:47.795Z,2.08
2024-02-11T01:47:14.450Z,2.30
2024-02-11T01:49:40.983Z,1.83
2024-02-11T01:52:08.054Z,2.13
2024-02-11T01:54:35.375Z,2.33
2024-02-11T01:57:01.869Z,2.00
2024-02-11T01:59:29.117Z,1.77
2024-02-11T02:01:55.967Z,1.98
2024-02-11T02:04:23.022Z,2.00
2024-02-11T02:06:50.208Z,1.90
2024-02-11T02:09:16.794Z,2.00
2024-02-11T02:11:43.347Z,2.00
2024-02-11T02:14:09.944Z,1.92
2024-02-11T02:16:36.446Z,2.10
2024-02-11T02:19:04.496Z,2.03
2024-02-11T02:21:31.280Z,2.15
2024-02-11T02:23:57.732Z,1.83
2024-02-11T02:26:24.341Z,1.83
2024-02-11T02:28:50.896Z,1.90
2024-02-11T02:31:17.391Z,1.92
2024-02-11T02:33:46.466Z,2.13
2024-02-11T02:36:13.120Z,1.90
2024-02-11T02:38:39.639Z,1.75
2024-02-11T02:41:06.165Z,1.92
2024-02-11T02:43:33.846Z,1.83
2024-02-11T02:46:00.560Z,1.80
2024-02-11T02:48:27.573Z,1.85
2024-02-11T02:50:54.021Z,1.90
2024-02-11T02:53:20.554Z,2.00
2024-02-11T02:55:47.933Z,1.85
2024-02-11T02:58:15.223Z,1.73
2024-02-11T03:00:42.169Z,1.80
2024-02-11T03:03:09.078Z,1.90
2024-02-11T03:05:42.966Z,1.80
2024-02-11T03:08:10.052Z,1.92
2024-02-11T03:10:37.095Z,2.00
2024-02-11T03:13:03.711Z,1.83
2024-02-11T03:15:30.290Z,2.00
2024-02-11T03:17:56.892Z,2.00
2024-02-11T03:20:23.526Z,2.05
2024-02-11T03:22:53.650Z,2.00
2024-02-11T03:25:20.474Z,2.03
2024-02-11T03:27:48.298Z,2.08
2024-02-11T03:30:18.468Z,1.90
2024-02-11T03:32:48.508Z,2.00
2024-02-11T03:35:15.363Z,2.20
2024-02-11T03:37:41.929Z,1.88
2024-02-11T03:40:13.519Z,1.88
2024-02-11T03:42:39.988Z,1.90
2024-02-11T03:45:13.272Z,1.70
2024-02-11T03:47:42.881Z,1.60
2024-02-11T03:50:11.386Z,1.98
2024-02-11T03:52:38.323Z,1.80
2024-02-11T03:55:09.767Z,2.10
2024-02-11T03:57:36.256Z,2.30
2024-02-11T04:00:11.729Z,1.98
2024-02-11T04:02:38.191Z,2.08
2024-02-11T04:05:05.407Z,1.90
2024-02-11T04:07:33.106Z,1.90
2024-02-11T04:10:18.470Z,2.05
2024-02-11T04:12:44.937Z,1.80
2024-02-11T04:15:11.429Z,2.03
2024-02-11T04:17:37.936Z,2.00
2024-02-11T04:20:09.836Z,2.00
2024-02-11T04:22:37.917Z,1.92
2024-02-11T04:25:08.708Z,2.17
2024-02-11T04:27:41.566Z,2.10
2024-02-11T04:30:14.121Z,1.85
2024-02-11T04:32:43.074Z,2.00
2024-02-11T04:35:18.976Z,2.00
2024-02-11T04:37:50.519Z,1.83
2024-02-11T04:40:17.886Z,1.98
2024-02-11T04:42:45.352Z,1.75
2024-02-11T04:47:42.094Z,1.70
2024-02-11T04:50:11.652Z,1.90
2024-02-11T04:52:41.462Z,1.65
2024-02-11T04:55:08.182Z,1.70
2024-02-11T04:57:38.753Z,2.03
2024-02-11T05:00:11.526Z,1.60
2024-02-11T05:02:45.748Z,1.70
2024-02-11T05:05:13.184Z,1.70
2024-02-11T05:07:45.063Z,1.65
2024-02-11T05:10:14.596Z,1.90
2024-02-11T05:12:42.290Z,2.00
2024-02-11T05:15:10.111Z,1.70
2024-02-11T05:17:39.379Z,1.85
2024-02-11T05:20:14.163Z,2.10
2024-02-11T05:22:44.638Z,2.00
2024-02-11T05:25:18.210Z,2.03
2024-02-11T05:27:46.116Z,2.00
2024-02-11T05:30:12.773Z,1.80
2024-02-11T05:32:40.058Z,2.28
2024-02-11T05:35:10.772Z,1.70
2024-02-11T05:37:37.538Z,1.90
2024-02-11T05:40:10.194Z,1.98
2024-02-11T05:42:39.128Z,2.10
2024-02-11T05:45:05.913Z,2.10
2024-02-11T05:47:32.512Z,2.00
2024-02-11T05:49:59.098Z,1.90
2024-02-11T05:52:25.589Z,1.90
2024-02-11T05:54:52.032Z,1.80
2024-02-11T05:57:18.514Z,1.85
2024-02-11T05:59:50.030Z,2.03
2024-02-11T06:02:17.195Z,1.75
2024-02-11T06:04:43.788Z,1.70
2024-02-11T06:07:12.062Z,2.00
2024-02-11T06:09:40.221Z,1.70
2024-02-11T06:12:07.658Z,2.03
2024-02-11T06:14:35.012Z,1.70
2024-02-11T06:17:02.024Z,1.73
2024-02-11T06:19:29.976Z,1.63
2024-02-11T06:21:57.110Z,1.90
2024-02-11T06:24:25.666Z,1.50
2024-02-11T06:26:53.070Z,1.67
2024-02-11T06:29:19.645Z,1.63
2024-02-11T06:31:49.608Z,1.60
2024-02-11T06:34:16.719Z,1.52
2024-02-11T06:36:43.245Z,1.73
2024-02-11T06:39:11.985Z,1.60
2024-02-11T06:41:38.826Z,1.90
2024-02-11T06:44:07.353Z,1.75
2024-02-11T06:46:34.193Z,1.80
2024-02-11T06:49:03.555Z,1.80
2024-02-11T06:51:32.320Z,1.70
2024-02-11T06:53:58.828Z,1.60
2024-02-11T06:56:28.060Z,1.70
2024-02-11T06:58:57.677Z,1.50
2024-02-11T07:01:24.966Z,1.50
2024-02-11T07:03:52.610Z,1.45
2024-02-11T07:06:19.152Z,1.52
2024-02-11T07:08:45.873Z,1.58
2024-02-11T07:11:12.864Z,1.58
2024-02-11T07:13:40.788Z,1.42
2024-02-11T07:16:09.152Z,2.08
2024-02-11T07:18:38.144Z,1.80
2024-02-11T07:21:04.757Z,1.40
2024-02-11T07:23:31.260Z,1.80
2024-02-11T07:25:58.790Z,1.52
2024-02-11T07:30:51.705Z,1.42
2024-02-11T07:33:20.254Z,1.63
2024-02-11T07:35:47.515Z,1.48
2024-02-11T07:38:14.190Z,1.50
2024-02-11T07:40:41.494Z,1.58
2024-02-11T07:43:07.990Z,1.50
2024-02-11T07:45:34.449Z,1.50
2024-02-11T07:48:01.137Z,1.60
2024-02-11T07:50:27.872Z,1.52
2024-02-11T07:52:54.496Z,1.35
2024-02-11T07:55:22.742Z,1.40
2024-02-11T07:57:51.714Z,1.60
2024-02-11T08:00:20.969Z,1.80
2024-02-11T08:02:48.066Z,1.80
2024-02-11T08:05:14.806Z,1.75
2024-02-11T08:07:41.336Z,1.75
2024-02-11T08:10:08.765Z,1.55
2024-02-11T08:12:35.315Z,1.60
2024-02-11T08:15:02.100Z,1.42
2024-02-11T08:17:28.783Z,1.50
2024-02-11T08:19:55.524Z,1.55
2024-02-11T08:22:22.208Z,1.35
2024-02-11T08:24:48.634Z,1.50
2024-02-11T08:27:15.209Z,1.90
2024-02-11T08:29:44.639Z,1.58
2024-02-11T08:32:11.123Z,1.90
2024-02-11T08:34:37.649Z,1.85
2024-02-11T08:37:04.673Z,1.48
2024-02-11T08:39:31.180Z,2.13
2024-02-11T08:41:57.717Z,1.90
2024-02-11T08:44:25.338Z,1.65
2024-02-11T08:46:53.285Z,1.60
2024-02-11T08:49:21.350Z,1.50
2024-02-11T08:51:47.855Z,1.63
2024-02-11T08:54:14.418Z,1.50
2024-02-11T08:56:40.962Z,1.40
2024-02-11T08:59:07.555Z,1.73
2024-02-11T09:01:34.199Z,1.40
2024-02-11T09:04:03.652Z,1.35
2024-02-11T09:06:32.105Z,1.50
2024-02-11T09:08:58.556Z,1.75
2024-02-11T09:11:25.445Z,1.80
2024-02-11T09:13:52.142Z,1.58
2024-02-11T09:16:21.378Z,1.90
2024-02-11T09:18:48.071Z,1.30
2024-02-11T09:21:15.496Z,1.58
2024-02-11T09:23:42.265Z,1.40
2024-02-11T09:26:09.656Z,1.50
2024-02-11T09:28:36.215Z,1.58
2024-02-11T09:31:03.500Z,1.45
2024-02-11T09:33:30.049Z,1.52
2024-02-11T09:35:56.573Z,1.55
2024-02-11T09:38:23.572Z,1.70
2024-02-11T09:40:50.376Z,1.85
2024-02-11T09:43:17.867Z,2.00
2024-02-11T09:45:45.123Z,1.70
2024-02-11T09:48:12.544Z,1.63
2024-02-11T09:50:39.234Z,1.73
2024-02-11T09:53:08.489Z,1.80
2024-02-11T09:55:35.760Z,1.75
2024-02-11T10:00:28.664Z,1.90
2024-02-11T10:02:56.165Z,1.95
2024-02-11T10:05:24.528Z,2.00
2024-02-11T10:07:53.849Z,2.20
2024-02-11T10:10:21.743Z,2.45
2024-02-11T10:12:49.731Z,2.10
2024-02-11T10:15:18.675Z,2.17
2024-02-11T10:17:46.406Z,2.20
2024-02-11T10:20:18.622Z,2.35
2024-02-11T10:22:45.524Z,2.30
2024-02-11T10:25:13.501Z,2.13
2024-02-11T10:27:40.421Z,2.47
2024-02-11T10:30:13.043Z,2.60
2024-02-11T10:32:40.541Z,2.92
2024-02-11T10:35:07.925Z,2.63
2024-02-11T10:37:43.082Z,2.90
2024-02-11T10:40:10.328Z,2.53
2024-02-11T10:42:36.958Z,2.72
2024-02-11T10:45:05.082Z,2.80
2024-02-11T10:47:32.152Z,2.90
2024-02-11T10:49:58.894Z,3.00
2024-02-11T10:52:27.141Z,2.90
2024-02-11T10:54:56.401Z,3.00
2024-02-11T10:57:24.227Z,3.75
2024-02-11T11:00:00.529Z,3.33
2024-02-11T11:02:28.468Z,3.10
2024-02-11T11:04:56.832Z,3.58
2024-02-11T11:07:24.243Z,3.22
2024-02-11T11:09:50.727Z,3.35
2024-02-11T11:12:18.445Z,2.92
2024-02-11T11:14:45.654Z,3.38
2024-02-11T11:17:23.491Z,3.30
2024-02-11T11:19:50.804Z,3.05
2024-02-11T11:24:47.323Z,3.80
2024-02-11T11:27:15.329Z,3.47
2024-02-11T11:29:41.805Z,4.00
2024-02-11T11:32:10.487Z,3.53
2024-02-11T11:34:37.356Z,4.25
2024-02-11T11:37:15.050Z,3.58
2024-02-11T11:39:43.119Z,3.75
2024-02-11T11:42:09.538Z,3.55
2024-02-11T11:44:36.101Z,3.58
2024-02-11T11:47:02.712Z,3.60
2024-02-11T11:49:30.110Z,3.83
2024-02-11T11:51:59.830Z,3.70
2024-02-11T11:54:29.671Z,3.55
2024-02-11T11:56:57.005Z,4.05
2024-02-11T11:59:23.617Z,4.00
2024-02-11T12:01:50.129Z,4.20
2024-02-11T12:04:18.373Z,4.35
2024-02-11T12:06:45.063Z,4.30
2024-02-11T12:09:15.336Z,4.18
2024-02-11T12:11:42.286Z,4.03
2024-02-11T12:14:10.040Z,4.22
2024-02-11T12:16:36.581Z,4.03
2024-02-11T12:19:03.658Z,4.35
2024-02-11T12:21:30.557Z,4.32
2024-02-11T12:23:57.892Z,4.78
2024-02-11T12:26:28.264Z,4.25
2024-02-11T12:28:57.053Z,4.10
2024-02-11T12:31:27.078Z,4.13
2024-02-11T12:33:54.999Z,3.95
2024-02-11T12:36:28.531Z,3.85
2024-02-11T12:38:56.379Z,3.50
2024-02-11T12:41:24.356Z,3.70
2024-02-11T12:43:52.202Z,3.42
2024-02-11T12:46:18.850Z,3.90
2024-02-11T12:48:46.117Z,3.50
2024-02-11T12:51:13.729Z,4.20
2024-02-11T12:53:40.593Z,4.10
2024-02-11T12:56:08.457Z,3.60
2024-02-11T12:58:35.094Z,4.10
2024-02-11T13:01:01.882Z,4.25
2024-02-11T13:03:28.423Z,3.75
2024-02-11T13:05:55.390Z,3.03
2024-02-11T13:08:24.588Z,2.70
2024-02-11T13:10:51.289Z,3.08
2024-02-11T13:13:18.111Z,3.25
2024-02-11T13:15:45.373Z,3.20
2024-02-11T13:18:15.740Z,3.67
2024-02-11T13:20:43.392Z,3.63
2024-02-11T13:23:09.877Z,4.05
2024-02-11T13:25:36.790Z,3.80
2024-02-11T13:28:03.982Z,3.90
2024-02-11T13:32:58.730Z,3.85
2024-02-11T13:35:25.338Z,3.95
2024-02-11T13:37:51.864Z,3.67
2024-02-11T13:40:18.519Z,3.92
2024-02-11T13:42:44.954Z,3.55
2024-02-11T13:45:14.153Z,3.75
2024-02-11T13:47:42.475Z,3.75
2024-02-11T13:50:10.215Z,3.90
2024-02-11T13:52:37.464Z,4.07
2024-02-11T13:57:33.301Z,4.15
2024-02-11T13:59:59.873Z,4.03
2024-02-11T14:02:27.922Z,4.18
2024-02-11T14:04:54.764Z,3.88
2024-02-11T14:07:22.067Z,4.13
2024-02-11T14:12:15.775Z,3.90
2024-02-11T14:14:42.383Z,4.20
2024-02-11T14:17:08.974Z,3.75
2024-02-11T14:19:35.888Z,3.97
2024-02-11T14:22:04.857Z,4.28
2024-02-11T14:24:34.557Z,4.07
2024-02-11T14:27:07.141Z,3.80
2024-02-11T14:29:38.658Z,4.15
2024-02-11T14:32:06.456Z,4.22
2024-02-11T14:34:33.722Z,3.67
2024-02-11T14:37:01.690Z,3.78
2024-02-11T14:39:28.828Z,3.60
2024-02-11T14:44:24.426Z,3.50
2024-02-11T14:46:56.246Z,3.85
2024-02-11T14:49:24.759Z,3.60
2024-02-11T14:51:51.343Z,3.83
2024-02-11T14:54:18.163Z,3.63
2024-02-11T14:56:46.776Z,3.55
2024-02-11T14:59:13.414Z,3.40
2024-02-11T15:01:40.108Z,3.85
2024-02-11T15:04:06.716Z,3.60
2024-02-11T15:06:33.358Z,3.97
2024-02-11T15:09:00.092Z,3.67
2024-02-11T15:11:27.468Z,3.47
2024-02-11T15:13:54.912Z,3.97
2024-02-11T15:18:48.465Z,3.70
2024-02-11T15:21:14.985Z,3.33
2024-02-11T15:23:41.438Z,3.47
2024-02-11T15:26:08.031Z,3.13
2024-02-11T15:28:35.924Z,3.22
2024-02-11T15:31:04.257Z,3.25
2024-02-11T15:33:30.857Z,3.20
2024-02-11T15:35:57.715Z,3.15
2024-02-11T15:38:27.139Z,3.78
2024-02-11T15:40:54.903Z,3.50
2024-02-11T15:43:21.561Z,3.13
2024-02-11T15:45:48.099Z,3.30
2024-02-11T15:48:14.745Z,3.20
2024-02-11T15:50:41.972Z,3.20
2024-02-11T15:53:09.400Z,3.10
2024-02-11T15:55:36.217Z,2.80
2024-02-11T15:58:02.728Z,3.20
2024-02-11T16:00:33.751Z,3.10
2024-02-11T16:03:02.951Z,3.00
2024-02-11T16:05:29.596Z,3.00
2024-02-11T16:07:56.367Z,3.22
2024-02-11T16:10:24.419Z,3.03
2024-02-11T16:12:50.917Z,3.10
2024-02-11T16:15:19.140Z,3.20
2024-02-11T16:17:45.863Z,3.00
2024-02-11T16:20:18.822Z,3.08
2024-02-11T16:22:46.594Z,2.80
2024-02-11T16:25:13.193Z,2.72
2024-02-11T16:27:40.858Z,3.10
2024-02-11T16:30:08.097Z,3.88
2024-02-11T16:35:01.139Z,3.55
2024-02-11T16:37:28.786Z,3.63
2024-02-11T16:39:56.234Z,3.65
2024-02-11T16:42:22.701Z,3.80
2024-02-11T16:44:53.496Z,3.72
2024-02-11T16:47:24.038Z,3.90
2024-02-11T16:49:50.876Z,3.85
2024-02-11T16:52:17.423Z,4.28
2024-02-11T16:54:45.269Z,3.92
2024-02-11T16:57:11.734Z,4.55
2024-02-11T16:59:41.233Z,4.40
2024-02-11T17:02:10.893Z,4.28
2024-02-11T17:04:37.903Z,4.25
2024-02-11T17:07:04.605Z,4.63
2024-02-11T17:09:32.870Z,4.57
2024-02-11T17:11:59.352Z,4.35
2024-02-11T17:14:25.938Z,4.70
2024-02-11T17:16:52.489Z,4.82
2024-02-11T17:19:20.358Z,4.40
2024-02-11T17:21:47.083Z,4.20
2024-02-11T17:24:16.773Z,4.18
2024-02-11T17:26:43.544Z,4.15
2024-02-11T17:29:11.623Z,4.63
2024-02-11T17:31:41.949Z,4.00
2024-02-11T17:34:14.668Z,4.35
2024-02-11T17:36:45.036Z,4.20
2024-02-11T17:39:11.762Z,4.43
2024-02-11T17:41:41.959Z,4.05
2024-02-11T17:44:09.593Z,4.57
2024-02-11T17:46:39.095Z,4.55
2024-02-11T17:49:10.005Z,4.20
2024-02-11T17:51:40.730Z,4.75
2024-02-11T17:54:09.878Z,4.28
2024-02-11T17:56:36.926Z,4.35
2024-02-11T17:59:06.569Z,4.57
2024-02-11T18:01:33.408Z,4.80
2024-02-11T18:04:00.722Z,4.82
2024-02-11T18:08:53.761Z,4.88
2024-02-11T18:11:21.165Z,4.85
2024-02-11T18:13:47.723Z,5.68
2024-02-11T18:16:14.236Z,5.43
2024-02-11T18:18:41.121Z,5.03
2024-02-11T18:21:08.609Z,6.22
2024-02-11T18:23:36.959Z,5.40
2024-02-11T18:26:09.540Z,5.28
2024-02-11T18:28:41.720Z,5.70
2024-02-11T18:31:10.542Z,6.13
2024-02-11T18:33:37.092Z,5.57
2024-02-11T18:36:03.633Z,5.57
2024-02-11T18:38:33.164Z,5.45
2024-02-11T18:40:59.903Z,5.30
2024-02-11T18:43:26.484Z,5.20
2024-02-11T18:45:53.013Z,5.22
2024-02-11T18:48:20.535Z,5.38
2024-02-11T18:50:47.272Z,5.22
2024-02-11T18:53:13.878Z,4.65
2024-02-11T18:55:41.527Z,5.30
2024-02-11T18:58:08.227Z,4.97
2024-02-11T19:00:34.920Z,5.68
2024-02-11T19:03:02.274Z,5.40
2024-02-11T19:05:29.705Z,5.07
2024-02-11T19:07:56.585Z,4.95
2024-02-11T19:10:23.196Z,5.30
2024-02-11T19:12:49.738Z,5.30
2024-02-11T19:15:16.307Z,5.50
2024-02-11T19:17:46.554Z,5.65
2024-02-11T19:20:14.777Z,5.22
2024-02-11T19:22:41.454Z,5.13
2024-02-11T19:25:08.248Z,5.20
2024-02-11T19:27:36.591Z,5.22
2024-02-11T19:30:07.598Z,5.35
2024-02-11T19:32:40.603Z,4.68
2024-02-11T19:35:08.217Z,5.00
2024-02-11T19:37:39.864Z,5.25
2024-02-11T19:40:08.226Z,5.22
2024-02-11T19:42:35.917Z,5.50
2024-02-11T19:45:02.866Z,5.28
2024-02-11T19:47:31.736Z,5.25
2024-02-11T19:49:59.221Z,4.93
2024-02-11T19:52:26.709Z,4.75
2024-02-11T19:57:27.129Z,4.78
2024-02-11T20:00:12.178Z,4.75
2024-02-11T20:02:41.250Z,4.63
2024-02-11T20:05:13.798Z,4.88
2024-02-11T20:07:40.755Z,4.68
2024-02-11T20:10:07.531Z,4.60
2024-02-11T20:12:34.734Z,4.63
2024-02-11T20:15:01.921Z,4.53
2024-02-11T20:17:29.573Z,4.63
2024-02-11T20:19:56.113Z,4.70
2024-02-11T20:22:22.616Z,4.18
2024-02-11T20:24:49.081Z,4.18
2024-02-11T20:27:15.857Z,4.10
2024-02-11T20:29:43.071Z,5.00
2024-02-11T20:34:38.754Z,4.50
2024-02-11T20:37:08.258Z,4.78
2024-02-11T20:39:35.830Z,5.28
2024-02-11T20:42:02.404Z,5.22
2024-02-11T20:44:29.165Z,4.90
2024-02-11T20:46:55.951Z,5.28
2024-02-11T20:49:22.645Z,5.25
2024-02-11T20:51:49.291Z,4.65
2024-02-11T20:54:15.852Z,4.78
2024-02-11T20:56:42.387Z,5.25
2024-02-11T20:59:10.810Z,4.90
2024-02-11T21:01:37.618Z,4.80
2024-02-11T21:04:06.322Z,4.78
2024-02-11T21:06:34.829Z,4.85
2024-02-11T21:09:01.562Z,4.70
2024-02-11T21:11:28.865Z,4.90
2024-02-11T21:13:55.455Z,5.22
2024-02-11T21:16:21.946Z,5.00
2024-02-11T21:18:51.251Z,4.68
2024-02-11T21:21:17.987Z,4.75
2024-02-11T21:23:45.882Z,4.80
2024-02-11T21:26:18.007Z,4.70
2024-02-11T21:28:48.686Z,5.07
2024-02-11T21:31:21.128Z,4.93
2024-02-11T21:36:16.592Z,4.30
2024-02-11T21:38:44.352Z,4.28
2024-02-11T21:41:11.434Z,4.13
2024-02-11T21:43:38.011Z,4.22
2024-02-11T21:46:04.556Z,4.00
2024-02-11T21:48:31.088Z,4.38
2024-02-11T21:51:00.755Z,3.90
2024-02-11T21:53:27.311Z,4.00
2024-02-11T21:55:54.512Z,4.38
2024-02-11T21:58:20.968Z,3.75
2024-02-11T22:00:47.473Z,4.10
2024-02-11T22:03:13.958Z,3.45
2024-02-11T22:05:40.999Z,3.55
2024-02-11T22:08:08.064Z,3.47
2024-02-11T22:10:34.825Z,3.72
2024-02-11T22:13:01.272Z,4.00
2024-02-11T22:15:27.764Z,3.42
2024-02-11T22:17:54.878Z,3.95
2024-02-11T22:20:21.617Z,3.75
2024-02-11T22:22:49.003Z,3.55
2024-02-11T22:27:42.568Z,3.50
2024-02-11T22:30:09.158Z,3.13
2024-02-11T22:32:36.067Z,3.13
2024-02-11T22:35:02.942Z,3.28
2024-02-11T22:37:30.098Z,3.60
2024-02-11T22:39:56.728Z,3.80
2024-02-11T22:42:23.265Z,3.30
2024-02-11T22:44:50.290Z,3.70
2024-02-11T22:47:17.354Z,3.25
2024-02-11T22:49:45.060Z,3.40
2024-02-11T22:54:38.103Z,3.50
2024-02-11T22:57:04.797Z,3.55
2024-02-11T22:59:31.455Z,3.40
2024-02-11T23:01:58.427Z,3.40
2024-02-11T23:04:24.973Z,3.70
2024-02-11T23:06:51.435Z,3.55
2024-02-11T23:09:17.927Z,3.55
2024-02-11T23:11:45.315Z,3.15
2024-02-11T23:14:11.945Z,3.55
2024-02-11T23:16:38.920Z,3.20
2024-02-11T23:19:08.800Z,3.30
2024-02-11T23:21:38.024Z,3.40
2024-02-11T23:24:04.871Z,3.20
2024-02-11T23:26:31.441Z,3.55
2024-02-11T23:28:58.295Z,3.40
2024-02-11T23:31:25.341Z,3.45
2024-02-11T23:33:51.945Z,3.20
2024-02-11T23:36:18.673Z,3.17
2024-02-11T23:38:45.909Z,3.00
2024-02-11T23:41:12.345Z,3.20
2024-02-11T23:43:38.950Z,3.08
2024-02-11T23:46:06.156Z,3.30
2024-02-11T23:48:33.222Z,3.70
2024-02-11T23:51:00.817Z,3.30
2024-02-11T23:55:54.574Z,3.10
2024-02-11T23:58:21.244Z,3.40
